sensor_id;sensor_type;location;lat;lon;timestamp;P1;durP1;ratioP1;P2;durP2;ratioP2
22603;SDS011;11469;49.024;8.246;2023-12-20T00:00:56;21.98;;;12.80;;
22603;SDS011;11469;49.024;8.246;2023-12-20T00:03:22;24.10;;;13.35;;
22603;SDS011;11469;49.024;8.246;2023-12-20T00:05:49;21.35;;;13.00;;
22603;SDS011;11469;49.024;8.246;2023-12-20T00:08:14;21.08;;;13.18;;
22603;SDS011;11469;49.024;8.246;2023-12-20T00:10:40;23.00;;;13.30;;
22603;SDS011;11469;49.024;8.246;2023-12-20T00:13:05;21.88;;;12.98;;
22603;SDS011;11469;49.024;8.246;2023-12-20T00:15:32;23.67;;;13.18;;
22603;SDS011;11469;49.024;8.246;2023-12-20T00:17:57;20.30;;;13.00;;
22603;SDS011;11469;49.024;8.246;2023-12-20T00:20:23;24.17;;;12.50;;
22603;SDS011;11469;49.024;8.246;2023-12-20T00:22:48;21.63;;;12.80;;
22603;SDS011;11469;49.024;8.246;2023-12-20T00:25:13;21.85;;;12.57;;
22603;SDS011;11469;49.024;8.246;2023-12-20T00:27:39;20.60;;;12.93;;
22603;SDS011;11469;49.024;8.246;2023-12-20T00:30:04;25.25;;;13.30;;
22603;SDS011;11469;49.024;8.246;2023-12-20T00:32:30;20.83;;;11.70;;
22603;SDS011;11469;49.024;8.246;2023-12-20T00:34:56;21.30;;;12.20;;
22603;SDS011;11469;49.024;8.246;2023-12-20T00:37:21;22.48;;;12.15;;
22603;SDS011;11469;49.024;8.246;2023-12-20T00:39:47;20.45;;;11.93;;
22603;SDS011;11469;49.024;8.246;2023-12-20T00:42:13;19.52;;;12.02;;
22603;SDS011;11469;49.024;8.246;2023-12-20T00:44:38;19.27;;;11.30;;
22603;SDS011;11469;49.024;8.246;2023-12-20T00:47:03;20.83;;;12.18;;
22603;SDS011;11469;49.024;8.246;2023-12-20T00:49:29;18.60;;;11.80;;
22603;SDS011;11469;49.024;8.246;2023-12-20T00:51:54;19.67;;;11.27;;
22603;SDS011;11469;49.024;8.246;2023-12-20T00:54:20;20.30;;;11.80;;
22603;SDS011;11469;49.024;8.246;2023-12-20T00:56:45;19.75;;;11.07;;
22603;SDS011;11469;49.024;8.246;2023-12-20T00:59:10;16.20;;;10.50;;
22603;SDS011;11469;49.024;8.246;2023-12-20T01:01:36;17.85;;;11.30;;
22603;SDS011;11469;49.024;8.246;2023-12-20T01:04:01;21.00;;;10.30;;
22603;SDS011;11469;49.024;8.246;2023-12-20T01:06:26;16.85;;;10.43;;
22603;SDS011;11469;49.024;8.246;2023-12-20T01:08:52;17.65;;;10.18;;
22603;SDS011;11469;49.024;8.246;2023-12-20T01:11:17;15.75;;;10.20;;
22603;SDS011;11469;49.024;8.246;2023-12-20T01:13:43;22.60;;;11.80;;
22603;SDS011;11469;49.024;8.246;2023-12-20T01:16:11;17.42;;;10.93;;
22603;SDS011;11469;49.024;8.246;2023-12-20T01:18:37;17.92;;;10.82;;
22603;SDS011;11469;49.024;8.246;2023-12-20T01:21:03;20.25;;;11.00;;
22603;SDS011;11469;49.024;8.246;2023-12-20T01:23:29;17.83;;;10.30;;
22603;SDS011;11469;49.024;8.246;2023-12-20T01:25:55;16.83;;;10.40;;
22603;SDS011;11469;49.024;8.246;2023-12-20T01:28:20;18.42;;;10.55;;
22603;SDS011;11469;49.024;8.246;2023-12-20T01:30:45;17.23;;;10.25;;
22603;SDS011;11469;49.024;8.246;2023-12-20T01:33:11;14.27;;;10.05;;
22603;SDS011;11469;49.024;8.246;2023-12-20T01:35:36;16.60;;;10.93;;
22603;SDS011;11469;49.024;8.246;2023-12-20T01:38:02;16.73;;;10.73;;
22603;SDS011;11469;49.024;8.246;2023-12-20T01:40:28;18.30;;;10.52;;
22603;SDS011;11469;49.024;8.246;2023-12-20T01:45:24;18.73;;;11.48;;
22603;SDS011;11469;49.024;8.246;2023-12-20T01:47:50;18.17;;;11.02;;
22603;SDS011;11469;49.024;8.246;2023-12-20T01:50:15;16.98;;;11.57;;
22603;SDS011;11469;49.024;8.246;2023-12-20T01:52:42;20.70;;;12.10;;
22603;SDS011;11469;49.024;8.246;2023-12-20T01:55:08;17.30;;;11.27;;
22603;SDS011;11469;49.024;8.246;2023-12-20T01:57:39;22.65;;;11.40;;
22603;SDS011;11469;49.024;8.246;2023-12-20T02:00:06;18.20;;;11.48;;
22603;SDS011;11469;49.024;8.246;2023-12-20T02:02:32;18.65;;;11.68;;
22603;SDS011;11469;49.024;8.246;2023-12-20T02:04:58;20.67;;;11.85;;
22603;SDS011;11469;49.024;8.246;2023-12-20T02:07:24;16.58;;;10.43;;
22603;SDS011;11469;49.024;8.246;2023-12-20T02:09:49;18.35;;;10.73;;
22603;SDS011;11469;49.024;8.246;2023-12-20T02:12:15;15.85;;;10.25;;
22603;SDS011;11469;49.024;8.246;2023-12-20T02:14:40;18.10;;;10.60;;
22603;SDS011;11469;49.024;8.246;2023-12-20T02:17:06;18.55;;;11.55;;
22603;SDS011;11469;49.024;8.246;2023-12-20T02:19:31;20.45;;;12.27;;
22603;SDS011;11469;49.024;8.246;2023-12-20T02:22:09;17.10;;;10.60;;
22603;SDS011;11469;49.024;8.246;2023-12-20T02:24:36;16.45;;;10.90;;
22603;SDS011;11469;49.024;8.246;2023-12-20T02:27:02;19.08;;;11.27;;
22603;SDS011;11469;49.024;8.246;2023-12-20T02:29:28;18.35;;;11.30;;
22603;SDS011;11469;49.024;8.246;2023-12-20T02:31:53;18.92;;;11.00;;
22603;SDS011;11469;49.024;8.246;2023-12-20T02:34:18;20.60;;;11.10;;
22603;SDS011;11469;49.024;8.246;2023-12-20T02:36:44;19.40;;;11.15;;
22603;SDS011;11469;49.024;8.246;2023-12-20T02:39:09;18.27;;;11.63;;
22603;SDS011;11469;49.024;8.246;2023-12-20T02:41:35;17.52;;;10.75;;
22603;SDS011;11469;49.024;8.246;2023-12-20T02:44:01;19.92;;;11.30;;
22603;SDS011;11469;49.024;8.246;2023-12-20T02:46:27;19.92;;;11.93;;
22603;SDS011;11469;49.024;8.246;2023-12-20T02:48:52;17.45;;;10.80;;
22603;SDS011;11469;49.024;8.246;2023-12-20T02:51:17;18.38;;;10.88;;
22603;SDS011;11469;49.024;8.246;2023-12-20T02:53:43;18.73;;;11.32;;
22603;SDS011;11469;49.024;8.246;2023-12-20T02:56:08;18.38;;;10.68;;
22603;SDS011;11469;49.024;8.246;2023-12-20T02:58:34;15.52;;;10.40;;
22603;SDS011;11469;49.024;8.246;2023-12-20T03:00:59;17.00;;;10.88;;
22603;SDS011;11469;49.024;8.246;2023-12-20T03:03:24;17.02;;;10.90;;
22603;SDS011;11469;49.024;8.246;2023-12-20T03:05:50;15.75;;;10.02;;
22603;SDS011;11469;49.024;8.246;2023-12-20T03:08:15;15.40;;;9.75;;
22603;SDS011;11469;49.024;8.246;2023-12-20T03:10:41;16.10;;;10.20;;
22603;SDS011;11469;49.024;8.246;2023-12-20T03:13:06;13.55;;;9.00;;
22603;SDS011;11469;49.024;8.246;2023-12-20T03:15:31;15.02;;;10.02;;
22603;SDS011;11469;49.024;8.246;2023-12-20T03:17:57;14.90;;;10.07;;
22603;SDS011;11469;49.024;8.246;2023-12-20T03:20:24;16.13;;;9.68;;
22603;SDS011;11469;49.024;8.246;2023-12-20T03:22:51;13.70;;;8.65;;
22603;SDS011;11469;49.024;8.246;2023-12-20T03:25:16;15.02;;;9.30;;
22603;SDS011;11469;49.024;8.246;2023-12-20T03:27:41;16.15;;;9.23;;
22603;SDS011;11469;49.024;8.246;2023-12-20T03:30:07;12.85;;;8.60;;
22603;SDS011;11469;49.024;8.246;2023-12-20T03:32:33;15.27;;;9.25;;
22603;SDS011;11469;49.024;8.246;2023-12-20T03:34:58;15.77;;;9.00;;
22603;SDS011;11469;49.024;8.246;2023-12-20T03:37:24;16.23;;;8.32;;
22603;SDS011;11469;49.024;8.246;2023-12-20T03:39:49;15.00;;;8.25;;
22603;SDS011;11469;49.024;8.246;2023-12-20T03:42:14;13.98;;;8.35;;
22603;SDS011;11469;49.024;8.246;2023-12-20T03:44:40;13.65;;;8.40;;
22603;SDS011;11469;49.024;8.246;2023-12-20T03:47:05;15.15;;;8.02;;
22603;SDS011;11469;49.024;8.246;2023-12-20T03:49:31;15.82;;;9.10;;
22603;SDS011;11469;49.024;8.246;2023-12-20T03:51:57;15.68;;;8.73;;
22603;SDS011;11469;49.024;8.246;2023-12-20T03:54:22;13.80;;;8.88;;
22603;SDS011;11469;49.024;8.246;2023-12-20T03:56:47;13.23;;;8.27;;
22603;SDS011;11469;49.024;8.246;2023-12-20T03:59:13;12.85;;;8.55;;
22603;SDS011;11469;49.024;8.246;2023-12-20T04:01:42;13.20;;;8.75;;
22603;SDS011;11469;49.024;8.246;2023-12-20T04:04:08;12.50;;;8.75;;
22603;SDS011;11469;49.024;8.246;2023-12-20T04:06:34;13.25;;;7.82;;
22603;SDS011;11469;49.024;8.246;2023-12-20T04:08:59;12.30;;;7.65;;
22603;SDS011;11469;49.024;8.246;2023-12-20T04:11:24;13.80;;;8.15;;
22603;SDS011;11469;49.024;8.246;2023-12-20T04:13:50;12.73;;;7.90;;
22603;SDS011;11469;49.024;8.246;2023-12-20T04:16:15;13.93;;;7.45;;
22603;SDS011;11469;49.024;8.246;2023-12-20T04:18:41;13.65;;;7.30;;
22603;SDS011;11469;49.024;8.246;2023-12-20T04:21:06;11.27;;;7.15;;
22603;SDS011;11469;49.024;8.246;2023-12-20T04:23:32;10.73;;;7.55;;
22603;SDS011;11469;49.024;8.246;2023-12-20T04:25:57;12.93;;;7.80;;
22603;SDS011;11469;49.024;8.246;2023-12-20T04:28:23;10.63;;;7.60;;
22603;SDS011;11469;49.024;8.246;2023-12-20T04:30:48;12.10;;;7.10;;
22603;SDS011;11469;49.024;8.246;2023-12-20T04:33:14;11.18;;;6.05;;
22603;SDS011;11469;49.024;8.246;2023-12-20T04:35:39;12.43;;;5.80;;
22603;SDS011;11469;49.024;8.246;2023-12-20T04:38:06;13.80;;;6.28;;
22603;SDS011;11469;49.024;8.246;2023-12-20T04:40:31;8.38;;;5.97;;
22603;SDS011;11469;49.024;8.246;2023-12-20T04:42:57;9.35;;;5.75;;
22603;SDS011;11469;49.024;8.246;2023-12-20T04:45:22;12.05;;;6.43;;
22603;SDS011;11469;49.024;8.246;2023-12-20T04:47:49;11.48;;;6.03;;
22603;SDS011;11469;49.024;8.246;2023-12-20T04:50:15;8.27;;;5.53;;
22603;SDS011;11469;49.024;8.246;2023-12-20T04:52:41;7.68;;;5.38;;
22603;SDS011;11469;49.024;8.246;2023-12-20T04:55:07;8.43;;;4.60;;
22603;SDS011;11469;49.024;8.246;2023-12-20T04:57:33;10.73;;;5.45;;
22603;SDS011;11469;49.024;8.246;2023-12-20T04:59:59;9.07;;;4.90;;
22603;SDS011;11469;49.024;8.246;2023-12-20T05:02:25;8.32;;;4.97;;
22603;SDS011;11469;49.024;8.246;2023-12-20T05:04:50;10.63;;;5.45;;
22603;SDS011;11469;49.024;8.246;2023-12-20T05:07:15;6.65;;;4.72;;
22603;SDS011;11469;49.024;8.246;2023-12-20T05:09:41;5.47;;;4.05;;
22603;SDS011;11469;49.024;8.246;2023-12-20T05:12:06;6.38;;;4.38;;
22603;SDS011;11469;49.024;8.246;2023-12-20T05:14:32;6.53;;;4.30;;
22603;SDS011;11469;49.024;8.246;2023-12-20T05:16:58;5.18;;;3.90;;
22603;SDS011;11469;49.024;8.246;2023-12-20T05:19:24;6.25;;;4.10;;
22603;SDS011;11469;49.024;8.246;2023-12-20T05:21:49;6.72;;;3.85;;
22603;SDS011;11469;49.024;8.246;2023-12-20T05:24:15;5.57;;;4.15;;
22603;SDS011;11469;49.024;8.246;2023-12-20T05:26:40;5.63;;;4.05;;
22603;SDS011;11469;49.024;8.246;2023-12-20T05:29:06;6.13;;;4.13;;
22603;SDS011;11469;49.024;8.246;2023-12-20T05:31:31;5.82;;;4.18;;
22603;SDS011;11469;49.024;8.246;2023-12-20T05:33:57;6.40;;;4.65;;
22603;SDS011;11469;49.024;8.246;2023-12-20T05:36:23;6.50;;;4.95;;
22603;SDS011;11469;49.024;8.246;2023-12-20T05:38:48;7.32;;;5.20;;
22603;SDS011;11469;49.024;8.246;2023-12-20T05:41:14;6.18;;;4.43;;
22603;SDS011;11469;49.024;8.246;2023-12-20T05:43:39;6.78;;;5.15;;
22603;SDS011;11469;49.024;8.246;2023-12-20T05:46:04;7.75;;;4.88;;
22603;SDS011;11469;49.024;8.246;2023-12-20T05:48:30;10.02;;;5.43;;
22603;SDS011;11469;49.024;8.246;2023-12-20T05:50:55;7.15;;;4.85;;
22603;SDS011;11469;49.024;8.246;2023-12-20T05:53:21;6.05;;;4.53;;
22603;SDS011;11469;49.024;8.246;2023-12-20T05:55:46;6.75;;;4.60;;
22603;SDS011;11469;49.024;8.246;2023-12-20T05:58:12;7.50;;;4.88;;
22603;SDS011;11469;49.024;8.246;2023-12-20T06:00:37;7.20;;;5.20;;
22603;SDS011;11469;49.024;8.246;2023-12-20T06:03:03;6.85;;;5.00;;
22603;SDS011;11469;49.024;8.246;2023-12-20T06:05:30;7.75;;;5.50;;
22603;SDS011;11469;49.024;8.246;2023-12-20T06:07:55;8.35;;;5.38;;
22603;SDS011;11469;49.024;8.246;2023-12-20T06:10:26;8.13;;;5.13;;
22603;SDS011;11469;49.024;8.246;2023-12-20T06:12:51;7.55;;;5.18;;
22603;SDS011;11469;49.024;8.246;2023-12-20T06:15:17;6.70;;;5.28;;
22603;SDS011;11469;49.024;8.246;2023-12-20T06:17:42;8.60;;;5.15;;
22603;SDS011;11469;49.024;8.246;2023-12-20T06:20:08;8.38;;;5.97;;
22603;SDS011;11469;49.024;8.246;2023-12-20T06:22:34;7.53;;;5.00;;
22603;SDS011;11469;49.024;8.246;2023-12-20T06:25:00;7.97;;;5.47;;
22603;SDS011;11469;49.024;8.246;2023-12-20T06:27:25;7.03;;;4.97;;
22603;SDS011;11469;49.024;8.246;2023-12-20T06:29:51;15.00;;;6.10;;
22603;SDS011;11469;49.024;8.246;2023-12-20T06:32:16;9.35;;;6.05;;
22603;SDS011;11469;49.024;8.246;2023-12-20T06:34:41;7.82;;;5.88;;
22603;SDS011;11469;49.024;8.246;2023-12-20T06:37:07;8.82;;;5.20;;
22603;SDS011;11469;49.024;8.246;2023-12-20T06:39:32;10.02;;;4.88;;
22603;SDS011;11469;49.024;8.246;2023-12-20T06:41:59;6.43;;;4.65;;
22603;SDS011;11469;49.024;8.246;2023-12-20T06:44:25;6.60;;;4.50;;
22603;SDS011;11469;49.024;8.246;2023-12-20T06:46:50;7.93;;;4.75;;
22603;SDS011;11469;49.024;8.246;2023-12-20T06:49:15;7.43;;;4.53;;
22603;SDS011;11469;49.024;8.246;2023-12-20T06:51:41;6.55;;;4.15;;
22603;SDS011;11469;49.024;8.246;2023-12-20T06:54:06;8.98;;;4.72;;
22603;SDS011;11469;49.024;8.246;2023-12-20T06:56:32;6.57;;;4.25;;
22603;SDS011;11469;49.024;8.246;2023-12-20T06:58:57;6.95;;;4.97;;
22603;SDS011;11469;49.024;8.246;2023-12-20T07:01:23;7.25;;;4.88;;
22603;SDS011;11469;49.024;8.246;2023-12-20T07:03:48;6.35;;;4.78;;
22603;SDS011;11469;49.024;8.246;2023-12-20T07:06:14;6.05;;;4.28;;
22603;SDS011;11469;49.024;8.246;2023-12-20T07:08:41;8.90;;;5.03;;
22603;SDS011;11469;49.024;8.246;2023-12-20T07:11:07;6.47;;;4.70;;
22603;SDS011;11469;49.024;8.246;2023-12-20T07:13:32;7.85;;;5.20;;
22603;SDS011;11469;49.024;8.246;2023-12-20T07:15:57;7.18;;;4.40;;
22603;SDS011;11469;49.024;8.246;2023-12-20T07:18:23;9.98;;;4.55;;
22603;SDS011;11469;49.024;8.246;2023-12-20T07:20:48;7.40;;;4.60;;
22603;SDS011;11469;49.024;8.246;2023-12-20T07:23:13;5.43;;;4.05;;
22603;SDS011;11469;49.024;8.246;2023-12-20T07:25:39;6.22;;;4.40;;
22603;SDS011;11469;49.024;8.246;2023-12-20T07:28:04;6.90;;;4.55;;
22603;SDS011;11469;49.024;8.246;2023-12-20T07:30:30;5.32;;;4.30;;
22603;SDS011;11469;49.024;8.246;2023-12-20T07:32:55;7.72;;;4.95;;
22603;SDS011;11469;49.024;8.246;2023-12-20T07:35:21;8.75;;;5.07;;
22603;SDS011;11469;49.024;8.246;2023-12-20T07:37:48;5.20;;;4.10;;
22603;SDS011;11469;49.024;8.246;2023-12-20T07:40:13;9.88;;;4.97;;
22603;SDS011;11469;49.024;8.246;2023-12-20T07:42:39;8.73;;;4.47;;
22603;SDS011;11469;49.024;8.246;2023-12-20T07:45:04;7.85;;;4.60;;
22603;SDS011;11469;49.024;8.246;2023-12-20T07:47:30;6.32;;;4.45;;
22603;SDS011;11469;49.024;8.246;2023-12-20T07:49:55;6.60;;;4.63;;
22603;SDS011;11469;49.024;8.246;2023-12-20T07:52:21;8.65;;;4.30;;
22603;SDS011;11469;49.024;8.246;2023-12-20T07:54:47;10.70;;;4.95;;
22603;SDS011;11469;49.024;8.246;2023-12-20T07:57:13;7.53;;;5.10;;
22603;SDS011;11469;49.024;8.246;2023-12-20T07:59:38;8.13;;;4.57;;
22603;SDS011;11469;49.024;8.246;2023-12-20T08:02:03;7.20;;;4.13;;
22603;SDS011;11469;49.024;8.246;2023-12-20T08:04:29;9.70;;;4.90;;
22603;SDS011;11469;49.024;8.246;2023-12-20T08:06:54;8.40;;;4.72;;
22603;SDS011;11469;49.024;8.246;2023-12-20T08:09:20;9.00;;;5.03;;
22603;SDS011;11469;49.024;8.246;2023-12-20T08:11:49;8.45;;;5.32;;
22603;SDS011;11469;49.024;8.246;2023-12-20T08:14:14;9.88;;;5.38;;
22603;SDS011;11469;49.024;8.246;2023-12-20T08:16:40;8.55;;;6.13;;
22603;SDS011;11469;49.024;8.246;2023-12-20T08:19:06;11.55;;;5.40;;
22603;SDS011;11469;49.024;8.246;2023-12-20T08:21:31;9.38;;;5.13;;
22603;SDS011;11469;49.024;8.246;2023-12-20T08:23:57;10.50;;;5.50;;
22603;SDS011;11469;49.024;8.246;2023-12-20T08:26:22;9.02;;;5.00;;
22603;SDS011;11469;49.024;8.246;2023-12-20T08:28:49;8.63;;;4.70;;
22603;SDS011;11469;49.024;8.246;2023-12-20T08:31:15;11.77;;;5.03;;
22603;SDS011;11469;49.024;8.246;2023-12-20T08:33:42;13.30;;;4.75;;
22603;SDS011;11469;49.024;8.246;2023-12-20T08:36:12;14.50;;;5.18;;
22603;SDS011;11469;49.024;8.246;2023-12-20T08:38:37;11.02;;;4.15;;
22603;SDS011;11469;49.024;8.246;2023-12-20T08:41:03;14.20;;;4.53;;
22603;SDS011;11469;49.024;8.246;2023-12-20T08:43:30;15.32;;;4.10;;
22603;SDS011;11469;49.024;8.246;2023-12-20T08:45:56;11.85;;;4.20;;
22603;SDS011;11469;49.024;8.246;2023-12-20T08:48:22;10.50;;;4.43;;
22603;SDS011;11469;49.024;8.246;2023-12-20T08:50:47;13.40;;;4.60;;
22603;SDS011;11469;49.024;8.246;2023-12-20T08:53:15;16.27;;;3.72;;
22603;SDS011;11469;49.024;8.246;2023-12-20T08:55:41;14.18;;;3.42;;
22603;SDS011;11469;49.024;8.246;2023-12-20T08:58:07;10.48;;;3.05;;
22603;SDS011;11469;49.024;8.246;2023-12-20T09:00:33;8.75;;;3.15;;
22603;SDS011;11469;49.024;8.246;2023-12-20T09:02:59;12.40;;;3.58;;
22603;SDS011;11469;49.024;8.246;2023-12-20T09:05:26;10.77;;;3.10;;
22603;SDS011;11469;49.024;8.246;2023-12-20T09:07:51;11.18;;;2.60;;
22603;SDS011;11469;49.024;8.246;2023-12-20T09:10:16;8.75;;;3.03;;
22603;SDS011;11469;49.024;8.246;2023-12-20T09:12:47;7.65;;;2.38;;
22603;SDS011;11469;49.024;8.246;2023-12-20T09:15:13;8.38;;;2.30;;
22603;SDS011;11469;49.024;8.246;2023-12-20T09:17:38;11.07;;;2.60;;
22603;SDS011;11469;49.024;8.246;2023-12-20T09:20:05;11.70;;;2.53;;
22603;SDS011;11469;49.024;8.246;2023-12-20T09:22:33;10.75;;;3.00;;
22603;SDS011;11469;49.024;8.246;2023-12-20T09:24:58;10.93;;;2.53;;
22603;SDS011;11469;49.024;8.246;2023-12-20T09:27:24;10.23;;;2.78;;
22603;SDS011;11469;49.024;8.246;2023-12-20T09:29:49;7.70;;;2.05;;
22603;SDS011;11469;49.024;8.246;2023-12-20T09:32:15;9.75;;;2.50;;
22603;SDS011;11469;49.024;8.246;2023-12-20T09:34:40;10.40;;;3.05;;
22603;SDS011;11469;49.024;8.246;2023-12-20T09:37:06;17.40;;;2.75;;
22603;SDS011;11469;49.024;8.246;2023-12-20T09:39:32;13.38;;;3.33;;
22603;SDS011;11469;49.024;8.246;2023-12-20T09:42:02;11.38;;;2.50;;
22603;SDS011;11469;49.024;8.246;2023-12-20T09:44:29;9.20;;;3.15;;
22603;SDS011;11469;49.024;8.246;2023-12-20T09:46:56;10.35;;;2.42;;
22603;SDS011;11469;49.024;8.246;2023-12-20T09:49:22;14.90;;;3.28;;
22603;SDS011;11469;49.024;8.246;2023-12-20T09:51:48;11.50;;;2.97;;
22603;SDS011;11469;49.024;8.246;2023-12-20T09:54:18;12.02;;;3.35;;
22603;SDS011;11469;49.024;8.246;2023-12-20T09:56:44;10.68;;;3.50;;
22603;SDS011;11469;49.024;8.246;2023-12-20T09:59:10;15.38;;;4.43;;
22603;SDS011;11469;49.024;8.246;2023-12-20T10:01:35;13.00;;;3.30;;
22603;SDS011;11469;49.024;8.246;2023-12-20T10:04:08;14.90;;;3.90;;
22603;SDS011;11469;49.024;8.246;2023-12-20T10:06:43;9.00;;;3.17;;
22603;SDS011;11469;49.024;8.246;2023-12-20T10:09:09;14.82;;;3.45;;
22603;SDS011;11469;49.024;8.246;2023-12-20T10:11:36;13.52;;;4.30;;
22603;SDS011;11469;49.024;8.246;2023-12-20T10:14:03;15.10;;;3.55;;
22603;SDS011;11469;49.024;8.246;2023-12-20T10:16:29;17.25;;;4.18;;
22603;SDS011;11469;49.024;8.246;2023-12-20T10:18:54;16.80;;;4.22;;
22603;SDS011;11469;49.024;8.246;2023-12-20T10:21:20;15.85;;;5.95;;
22603;SDS011;11469;49.024;8.246;2023-12-20T10:23:47;19.98;;;6.45;;
22603;SDS011;11469;49.024;8.246;2023-12-20T10:26:22;13.55;;;4.25;;
22603;SDS011;11469;49.024;8.246;2023-12-20T10:33:58;10.32;;;3.60;;
22603;SDS011;11469;49.024;8.246;2023-12-20T10:36:25;20.80;;;4.30;;
22603;SDS011;11469;49.024;8.246;2023-12-20T10:38:52;16.50;;;4.95;;
22603;SDS011;11469;49.024;8.246;2023-12-20T10:41:26;15.05;;;3.33;;
22603;SDS011;11469;49.024;8.246;2023-12-20T10:43:54;16.27;;;4.03;;
22603;SDS011;11469;49.024;8.246;2023-12-20T10:46:21;13.82;;;4.80;;
22603;SDS011;11469;49.024;8.246;2023-12-20T10:48:47;12.93;;;4.03;;
22603;SDS011;11469;49.024;8.246;2023-12-20T10:51:14;15.15;;;4.00;;
22603;SDS011;11469;49.024;8.246;2023-12-20T10:53:43;11.48;;;3.97;;
22603;SDS011;11469;49.024;8.246;2023-12-20T10:56:09;14.25;;;4.07;;
22603;SDS011;11469;49.024;8.246;2023-12-20T10:58:42;16.95;;;4.68;;
22603;SDS011;11469;49.024;8.246;2023-12-20T11:01:11;17.65;;;5.00;;
22603;SDS011;11469;49.024;8.246;2023-12-20T11:03:38;17.33;;;4.75;;
22603;SDS011;11469;49.024;8.246;2023-12-20T11:06:11;16.15;;;4.38;;
22603;SDS011;11469;49.024;8.246;2023-12-20T11:09:13;18.27;;;3.88;;
22603;SDS011;11469;49.024;8.246;2023-12-20T11:12:09;16.63;;;4.28;;
22603;SDS011;11469;49.024;8.246;2023-12-20T11:14:52;15.25;;;4.18;;
22603;SDS011;11469;49.024;8.246;2023-12-20T11:17:22;10.43;;;3.72;;
22603;SDS011;11469;49.024;8.246;2023-12-20T11:22:17;20.77;;;4.07;;
22603;SDS011;11469;49.024;8.246;2023-12-20T11:24:44;14.05;;;4.32;;
22603;SDS011;11469;49.024;8.246;2023-12-20T11:27:09;15.52;;;3.67;;
22603;SDS011;11469;49.024;8.246;2023-12-20T11:29:35;13.88;;;3.03;;
22603;SDS011;11469;49.024;8.246;2023-12-20T11:32:02;21.80;;;3.90;;
22603;SDS011;11469;49.024;8.246;2023-12-20T11:34:29;15.00;;;4.28;;
22603;SDS011;11469;49.024;8.246;2023-12-20T11:36:58;14.65;;;4.35;;
22603;SDS011;11469;49.024;8.246;2023-12-20T11:39:25;16.55;;;4.10;;
22603;SDS011;11469;49.024;8.246;2023-12-20T11:41:53;16.10;;;3.88;;
22603;SDS011;11469;49.024;8.246;2023-12-20T11:44:19;20.45;;;4.63;;
22603;SDS011;11469;49.024;8.246;2023-12-20T11:46:45;17.63;;;3.92;;
22603;SDS011;11469;49.024;8.246;2023-12-20T11:49:11;25.77;;;5.25;;
22603;SDS011;11469;49.024;8.246;2023-12-20T11:51:40;13.43;;;3.90;;
22603;SDS011;11469;49.024;8.246;2023-12-20T11:54:06;19.33;;;3.75;;
22603;SDS011;11469;49.024;8.246;2023-12-20T11:56:31;18.17;;;4.15;;
22603;SDS011;11469;49.024;8.246;2023-12-20T11:58:57;19.15;;;4.57;;
22603;SDS011;11469;49.024;8.246;2023-12-20T12:01:22;20.13;;;3.97;;
22603;SDS011;11469;49.024;8.246;2023-12-20T12:03:47;17.63;;;3.90;;
22603;SDS011;11469;49.024;8.246;2023-12-20T12:06:13;17.00;;;4.35;;
22603;SDS011;11469;49.024;8.246;2023-12-20T12:08:38;22.70;;;4.05;;
22603;SDS011;11469;49.024;8.246;2023-12-20T12:11:04;17.20;;;3.38;;
22603;SDS011;11469;49.024;8.246;2023-12-20T12:13:29;13.23;;;3.80;;
22603;SDS011;11469;49.024;8.246;2023-12-20T12:15:55;16.52;;;3.80;;
22603;SDS011;11469;49.024;8.246;2023-12-20T12:18:20;24.65;;;6.57;;
22603;SDS011;11469;49.024;8.246;2023-12-20T12:20:46;16.10;;;5.25;;
22603;SDS011;11469;49.024;8.246;2023-12-20T12:23:11;13.35;;;3.85;;
22603;SDS011;11469;49.024;8.246;2023-12-20T12:25:37;16.67;;;3.95;;
22603;SDS011;11469;49.024;8.246;2023-12-20T12:28:02;19.17;;;3.60;;
22603;SDS011;11469;49.024;8.246;2023-12-20T12:30:28;11.90;;;3.17;;
22603;SDS011;11469;49.024;8.246;2023-12-20T12:32:54;18.67;;;3.92;;
22603;SDS011;11469;49.024;8.246;2023-12-20T12:35:21;16.00;;;3.75;;
22603;SDS011;11469;49.024;8.246;2023-12-20T12:37:47;22.38;;;4.78;;
22603;SDS011;11469;49.024;8.246;2023-12-20T12:40:13;14.20;;;3.10;;
22603;SDS011;11469;49.024;8.246;2023-12-20T12:42:40;12.48;;;3.10;;
22603;SDS011;11469;49.024;8.246;2023-12-20T12:45:08;21.88;;;3.95;;
22603;SDS011;11469;49.024;8.246;2023-12-20T12:47:34;21.20;;;3.50;;
22603;SDS011;11469;49.024;8.246;2023-12-20T12:50:00;19.40;;;3.38;;
22603;SDS011;11469;49.024;8.246;2023-12-20T12:52:26;15.50;;;3.60;;
22603;SDS011;11469;49.024;8.246;2023-12-20T12:54:52;9.23;;;2.80;;
22603;SDS011;11469;49.024;8.246;2023-12-20T12:57:17;16.45;;;3.70;;
22603;SDS011;11469;49.024;8.246;2023-12-20T12:59:44;11.98;;;3.28;;
22603;SDS011;11469;49.024;8.246;2023-12-20T13:02:11;11.15;;;2.88;;
22603;SDS011;11469;49.024;8.246;2023-12-20T13:04:38;21.65;;;3.88;;
22603;SDS011;11469;49.024;8.246;2023-12-20T13:07:04;15.15;;;3.53;;
22603;SDS011;11469;49.024;8.246;2023-12-20T13:09:30;11.93;;;3.22;;
22603;SDS011;11469;49.024;8.246;2023-12-20T13:11:55;15.05;;;3.13;;
22603;SDS011;11469;49.024;8.246;2023-12-20T13:14:21;17.15;;;3.55;;
22603;SDS011;11469;49.024;8.246;2023-12-20T13:16:46;18.50;;;3.88;;
22603;SDS011;11469;49.024;8.246;2023-12-20T13:19:12;22.05;;;3.92;;
22603;SDS011;11469;49.024;8.246;2023-12-20T13:21:37;12.73;;;3.95;;
22603;SDS011;11469;49.024;8.246;2023-12-20T13:24:03;14.77;;;3.40;;
22603;SDS011;11469;49.024;8.246;2023-12-20T13:26:29;17.65;;;4.60;;
22603;SDS011;11469;49.024;8.246;2023-12-20T13:28:54;16.10;;;3.72;;
22603;SDS011;11469;49.024;8.246;2023-12-20T13:31:20;15.20;;;4.15;;
22603;SDS011;11469;49.024;8.246;2023-12-20T13:33:45;16.67;;;3.80;;
22603;SDS011;11469;49.024;8.246;2023-12-20T13:36:11;11.82;;;3.92;;
22603;SDS011;11469;49.024;8.246;2023-12-20T13:38:36;19.88;;;4.00;;
22603;SDS011;11469;49.024;8.246;2023-12-20T13:41:02;27.58;;;4.05;;
22603;SDS011;11469;49.024;8.246;2023-12-20T13:43:27;17.05;;;3.83;;
22603;SDS011;11469;49.024;8.246;2023-12-20T13:45:52;14.10;;;3.85;;
22603;SDS011;11469;49.024;8.246;2023-12-20T13:48:18;22.27;;;3.83;;
22603;SDS011;11469;49.024;8.246;2023-12-20T13:50:43;20.38;;;3.58;;
22603;SDS011;11469;49.024;8.246;2023-12-20T13:53:09;15.95;;;3.10;;
22603;SDS011;11469;49.024;8.246;2023-12-20T13:55:37;30.60;;;5.55;;
22603;SDS011;11469;49.024;8.246;2023-12-20T13:58:02;20.83;;;3.90;;
22603;SDS011;11469;49.024;8.246;2023-12-20T14:00:28;17.98;;;4.55;;
22603;SDS011;11469;49.024;8.246;2023-12-20T14:02:55;18.00;;;4.03;;
22603;SDS011;11469;49.024;8.246;2023-12-20T14:05:21;17.17;;;3.17;;
22603;SDS011;11469;49.024;8.246;2023-12-20T14:07:48;20.90;;;2.90;;
22603;SDS011;11469;49.024;8.246;2023-12-20T14:10:14;14.32;;;2.97;;
22603;SDS011;11469;49.024;8.246;2023-12-20T14:12:41;10.68;;;2.53;;
22603;SDS011;11469;49.024;8.246;2023-12-20T14:15:07;15.75;;;3.22;;
22603;SDS011;11469;49.024;8.246;2023-12-20T14:17:39;17.42;;;2.72;;
22603;SDS011;11469;49.024;8.246;2023-12-20T14:20:07;26.00;;;7.57;;
22603;SDS011;11469;49.024;8.246;2023-12-20T14:22:33;27.23;;;5.35;;
22603;SDS011;11469;49.024;8.246;2023-12-20T14:25:00;33.90;;;4.47;;
22603;SDS011;11469;49.024;8.246;2023-12-20T14:27:26;17.10;;;3.45;;
22603;SDS011;11469;49.024;8.246;2023-12-20T14:29:53;17.50;;;3.00;;
22603;SDS011;11469;49.024;8.246;2023-12-20T14:32:19;17.27;;;3.95;;
22603;SDS011;11469;49.024;8.246;2023-12-20T14:34:44;22.05;;;3.58;;
22603;SDS011;11469;49.024;8.246;2023-12-20T14:37:11;27.48;;;4.65;;
22603;SDS011;11469;49.024;8.246;2023-12-20T14:39:36;13.27;;;3.40;;